Fallon Naval Air Station /Van Voorhis Field
KNFL : now visible

Airfield :











YOU CAN JOIN US ON...

 
LOGIN :

Register | Disclaimer

   EN    FR    IT 

 









Legend :    VFR   Marginal VFR   IFR   Intensive IFR   Very Intensive IFR
Visi :
Ceiling :
>= 8 km
>= 3000ft
5 to 8 km
1000 to 3000 ft
1500m to 5 km
500 to 1000 ft
800 to 1500m
200 to 500 ft
< 800m
< 200 ft
Symbols :   Thunderstorms  Fog  Heavy snow  Heavy precipitations  Wind > 20 kt






- Airport Elevation : 3934 ft


KNFL - Fallon Naval Air Station /Van Voorhis Field

CURRENT METAR :
  • 272056Z 25004KT 10SM SCT060 SCT100 BKN170 BKN220 12/M01 A3031 RMK AO2 SLP221 T01171006 58009

EXPIRED METARs :
  • 271956Z 16004KT 10SM SCT050 SCT100 BKN180 BKN220 10/M01 A3032 RMK AO2 SLP227 T01001006
  • 271856Z 14007KT 10SM SCT055 BKN070 BKN120 07/01 A3034 RMK AO2 SLP232 T00720006

TAF TAF KNFL
Valid from the 27 at 15:00 until the 28 at 15:00 UTC


2715/2815 VRB06KT 9999 SCT080 BKN120 BKN200 QNH3025INS
FM280400 VRB06KT 9999 FEW060 SCT100 SCT200 QNH3030INS T14/2723Z T00/2815Z FS30003



MET'MAP, your aeronautical weather chart ! - Copyright ORBIFLY December 2007 - Disclaimer

ORBIFLY MET'MAP TEAM :

Programming & Development : Alexandra Zaïnal
Concept & original design : Baudouin d'Aumeries
Assistance for programming : Marc-Olivier Méhu
Technical & hardware support : Manuel Goepfert

Contact : metmap@orbifly.com




SOURCES & CREDITS :

   NOAA       Earth
Advisory